createdAt,value
2023-02-19T00:03:52.363Z,9.32
2023-02-19T00:08:54.578Z,10.57
2023-02-19T00:13:56.000Z,10.43
2023-02-19T00:19:03.517Z,7.35
2023-02-19T00:24:05.841Z,9.77
2023-02-19T00:29:07.404Z,11.57
2023-02-19T00:34:15.745Z,12.45
2023-02-19T00:39:18.892Z,10.73
2023-02-19T00:49:24.514Z,10.23
2023-02-19T00:54:29.387Z,12.90
2023-02-19T00:59:33.003Z,10.25
2023-02-19T01:04:33.981Z,9.75
2023-02-19T01:09:34.975Z,10.60
2023-02-19T01:14:34.703Z,9.45
2023-02-19T01:19:38.642Z,12.02
2023-02-19T01:24:39.567Z,11.82
2023-02-19T01:29:41.098Z,12.65
2023-02-19T01:34:42.317Z,13.57
2023-02-19T01:39:41.906Z,12.60
2023-02-19T01:45:27.042Z,12.82
2023-02-19T01:50:34.221Z,12.63
2023-02-19T01:55:36.389Z,12.07
2023-02-19T02:00:36.429Z,18.67
2023-02-19T02:05:50.902Z,10.82
2023-02-19T02:10:52.417Z,11.07
2023-02-19T02:16:00.839Z,13.27
2023-02-19T02:21:48.038Z,12.07
2023-02-19T02:27:04.544Z,11.60
2023-02-19T02:32:13.343Z,10.10
2023-02-19T02:37:14.165Z,12.45
2023-02-19T02:42:30.551Z,10.27
2023-02-19T02:47:43.211Z,13.35
2023-02-19T02:53:02.975Z,10.80
2023-02-19T02:58:03.207Z,13.20
2023-02-19T03:03:06.908Z,11.00
2023-02-19T03:08:19.223Z,12.27
2023-02-19T03:13:42.931Z,12.70
2023-02-19T03:19:05.015Z,11.60
2023-02-19T03:24:24.925Z,11.97
2023-02-19T03:29:27.889Z,12.13
2023-02-19T03:34:41.489Z,11.95
2023-02-19T03:39:47.494Z,12.40
2023-02-19T03:45:05.673Z,15.10
2023-02-19T03:50:18.535Z,15.05
2023-02-19T03:55:27.458Z,13.85
2023-02-19T04:00:35.473Z,13.85
2023-02-19T04:05:43.447Z,14.73
2023-02-19T04:10:44.537Z,13.68
2023-02-19T04:15:48.191Z,18.52
2023-02-19T04:25:56.763Z,15.23
2023-02-19T04:30:56.382Z,13.27
2023-02-19T04:35:59.166Z,14.57
2023-02-19T04:40:58.787Z,17.50
2023-02-19T04:46:03.046Z,17.40
2023-02-19T04:51:09.131Z,15.60
2023-02-19T04:56:09.990Z,15.77
2023-02-19T05:01:12.644Z,15.07
2023-02-19T05:06:18.106Z,15.60
2023-02-19T05:11:19.373Z,22.27
2023-02-19T05:16:19.524Z,16.25
2023-02-19T05:21:24.359Z,17.58
2023-02-19T05:26:25.595Z,18.65
2023-02-19T05:31:25.544Z,35.53
2023-02-19T05:36:28.797Z,22.80
2023-02-19T05:41:47.300Z,39.05
2023-02-19T05:47:03.108Z,87.07
2023-02-19T05:52:05.972Z,92.03
2023-02-19T05:57:05.738Z,170.32
2023-02-19T06:02:05.440Z,51.10
2023-02-19T06:07:16.599Z,23.15
2023-02-19T06:12:26.040Z,23.77
2023-02-19T06:17:29.916Z,27.75
2023-02-19T06:22:34.005Z,23.13
2023-02-19T06:27:43.767Z,18.55
2023-02-19T06:32:47.113Z,21.52
2023-02-19T06:37:52.612Z,22.58
2023-02-19T06:42:56.056Z,21.83
2023-02-19T06:48:08.044Z,19.48
2023-02-19T06:53:12.618Z,19.02
2023-02-19T06:58:12.401Z,25.52
2023-02-19T07:03:11.922Z,19.80
2023-02-19T07:08:17.644Z,21.50
2023-02-19T07:13:17.230Z,19.25
2023-02-19T07:18:18.708Z,23.08
2023-02-19T07:23:22.242Z,20.33
2023-02-19T07:33:59.748Z,25.65
2023-02-19T07:39:05.056Z,27.67
2023-02-19T07:44:05.648Z,25.85
2023-02-19T07:49:38.844Z,24.52
2023-02-19T07:54:46.538Z,23.70
2023-02-19T07:59:56.334Z,22.10
2023-02-19T08:04:57.911Z,22.73
2023-02-19T08:10:27.267Z,23.83
2023-02-19T08:21:03.374Z,20.80
2023-02-19T08:26:08.200Z,23.50
2023-02-19T08:31:10.731Z,24.70
2023-02-19T08:36:23.957Z,21.25
2023-02-19T08:41:27.239Z,24.58
2023-02-19T08:46:28.483Z,20.85
2023-02-19T08:51:33.128Z,23.92
2023-02-19T08:56:50.480Z,22.45
2023-02-19T09:02:01.762Z,19.83
2023-02-19T09:07:04.769Z,20.98
2023-02-19T09:12:06.844Z,21.25
2023-02-19T09:17:08.014Z,19.27
2023-02-19T09:22:08.029Z,23.40
2023-02-19T09:27:11.145Z,22.50
2023-02-19T09:32:15.967Z,16.35
2023-02-19T09:37:26.800Z,22.33
2023-02-19T09:42:37.878Z,18.02
2023-02-19T09:47:38.818Z,18.42
2023-02-19T09:52:47.863Z,16.33
2023-02-19T09:57:50.571Z,13.70
2023-02-19T10:08:21.675Z,16.55
2023-02-19T10:13:35.835Z,14.20
2023-02-19T10:18:43.974Z,11.73
2023-02-19T10:23:44.815Z,15.90
2023-02-19T10:28:56.101Z,14.30
2023-02-19T10:34:03.018Z,15.18
2023-02-19T10:39:09.214Z,14.40
2023-02-19T10:44:24.560Z,12.88
2023-02-19T10:49:28.390Z,14.20
2023-02-19T10:54:33.032Z,13.50
2023-02-19T10:59:37.266Z,13.55
2023-02-19T11:04:38.744Z,11.02
2023-02-19T11:09:43.382Z,13.25
2023-02-19T11:14:47.192Z,10.40
2023-02-19T11:19:49.728Z,7.38
2023-02-19T11:24:58.511Z,8.85
2023-02-19T11:35:33.954Z,12.32
2023-02-19T11:40:44.652Z,16.48
2023-02-19T11:45:53.691Z,10.75
2023-02-19T11:51:17.148Z,10.65
2023-02-19T11:56:22.649Z,10.13
2023-02-19T12:01:33.438Z,7.20
2023-02-19T12:06:48.903Z,10.90
2023-02-19T12:12:04.265Z,9.27
2023-02-19T12:17:21.425Z,14.77
2023-02-19T12:22:33.694Z,8.20
2023-02-19T12:27:49.140Z,7.90
2023-02-19T12:33:29.012Z,6.40
2023-02-19T12:38:46.138Z,9.70
2023-02-19T12:43:55.912Z,7.70
2023-02-19T12:49:15.917Z,8.25
2023-02-19T13:01:14.232Z,9.10
2023-02-19T13:35:12.934Z,14.82
2023-02-19T13:40:43.276Z,8.60
2023-02-19T14:01:16.555Z,6.07
2023-02-19T14:40:47.477Z,19.83
2023-02-19T14:45:51.019Z,13.23
2023-02-19T14:50:52.934Z,5.40
2023-02-19T14:55:56.075Z,4.70
2023-02-19T15:00:54.891Z,5.72
2023-02-19T15:05:58.210Z,5.55
2023-02-19T15:10:58.442Z,6.30
2023-02-19T15:15:57.810Z,6.25
2023-02-19T15:21:02.511Z,6.20
2023-02-19T15:26:03.398Z,3.80
2023-02-19T15:31:14.306Z,12.70
2023-02-19T15:36:14.545Z,8.02
2023-02-19T15:41:23.071Z,3.30
2023-02-19T15:46:23.535Z,5.65
2023-02-19T15:51:28.055Z,5.47
2023-02-19T15:56:31.470Z,11.10
2023-02-19T16:01:31.736Z,5.68
2023-02-19T16:06:30.703Z,6.13
2023-02-19T16:11:36.391Z,5.18
2023-02-19T16:16:41.091Z,7.57
2023-02-19T16:21:40.225Z,9.23
2023-02-19T16:26:43.126Z,7.90
2023-02-19T16:31:49.636Z,12.05
2023-02-19T16:36:49.560Z,12.93
2023-02-19T16:42:21.005Z,10.43
2023-02-19T16:47:45.295Z,8.93
2023-02-19T16:52:54.796Z,9.50
2023-02-19T16:57:55.474Z,13.60
2023-02-19T17:02:56.736Z,13.20
2023-02-19T17:07:55.641Z,10.05
2023-02-19T17:12:56.747Z,8.65
2023-02-19T17:17:55.741Z,8.20
2023-02-19T17:22:54.555Z,8.35
2023-02-19T17:27:53.451Z,10.63
2023-02-19T17:32:53.703Z,9.98
2023-02-19T17:37:53.552Z,10.75
2023-02-19T17:42:52.463Z,11.95
2023-02-19T17:47:51.479Z,12.00
2023-02-19T17:52:51.775Z,12.63
2023-02-19T17:57:52.184Z,10.30
2023-02-19T18:02:50.951Z,10.85
2023-02-19T18:07:52.117Z,11.80
2023-02-19T18:12:51.521Z,10.55
2023-02-19T18:17:50.690Z,8.98
2023-02-19T18:22:53.660Z,9.98
2023-02-19T18:32:58.719Z,8.60
2023-02-19T18:38:00.281Z,11.43
2023-02-19T18:42:59.979Z,9.73
2023-02-19T18:48:01.153Z,13.40
2023-02-19T18:53:03.833Z,12.25
2023-02-19T18:58:06.361Z,10.27
2023-02-19T19:03:09.603Z,18.40
2023-02-19T19:08:09.929Z,17.77
2023-02-19T19:13:11.003Z,35.97
2023-02-19T19:18:13.338Z,13.95
2023-02-19T19:23:15.370Z,9.07
2023-02-19T19:28:14.245Z,11.05
2023-02-19T19:33:15.108Z,9.70
2023-02-19T19:38:16.343Z,11.15
2023-02-19T19:43:16.974Z,10.88
2023-02-19T19:48:16.123Z,12.02
2023-02-19T19:53:22.761Z,13.30
2023-02-19T19:58:26.068Z,12.20
2023-02-19T20:03:30.844Z,12.30
2023-02-19T20:08:34.114Z,12.90
2023-02-19T20:13:34.553Z,14.10
2023-02-19T20:18:36.306Z,13.50
2023-02-19T20:23:38.810Z,15.48
2023-02-19T20:28:38.244Z,13.90
2023-02-19T20:33:40.018Z,15.45
2023-02-19T20:38:43.602Z,17.60
2023-02-19T20:43:45.138Z,12.10
2023-02-19T20:48:47.185Z,16.75
2023-02-19T20:53:48.217Z,16.15
2023-02-19T20:58:49.122Z,12.98
2023-02-19T21:03:51.278Z,14.57
2023-02-19T21:08:54.934Z,14.38
2023-02-19T21:14:02.511Z,22.27
2023-02-19T21:19:03.759Z,15.00
2023-02-19T21:24:09.415Z,19.77
2023-02-19T21:29:12.854Z,14.60
2023-02-19T21:34:16.057Z,19.30
2023-02-19T21:39:49.242Z,21.30
2023-02-19T21:44:49.768Z,22.80
2023-02-19T21:49:49.782Z,22.25
2023-02-19T21:54:52.679Z,20.27
2023-02-19T21:59:52.781Z,17.77
2023-02-19T22:04:57.040Z,28.77
2023-02-19T22:15:23.230Z,20.52
2023-02-19T22:20:22.405Z,19.80
2023-02-19T22:25:22.859Z,20.10
2023-02-19T22:30:22.086Z,22.65
2023-02-19T22:35:20.983Z,17.02
2023-02-19T22:40:19.889Z,14.27
2023-02-19T22:45:20.030Z,14.43
2023-02-19T22:50:20.462Z,15.85
2023-02-19T22:55:19.574Z,15.70
2023-02-19T23:00:22.410Z,18.83
2023-02-19T23:05:22.699Z,18.52
2023-02-19T23:10:21.476Z,18.63
2023-02-19T23:15:21.808Z,16.23
2023-02-19T23:20:20.593Z,16.05
2023-02-19T23:25:19.459Z,15.52
2023-02-19T23:30:18.764Z,16.40
2023-02-19T23:35:19.222Z,16.48
2023-02-19T23:40:19.043Z,16.75
2023-02-19T23:45:18.567Z,17.00
2023-02-19T23:50:19.023Z,15.15
2023-02-19T23:55:17.986Z,14.38
